createdAt,value
2022-12-22T00:00:17.428Z,937.42
2022-12-22T00:00:47.280Z,937.42
2022-12-22T00:01:18.535Z,937.32
2022-12-22T00:01:50.496Z,937.32
2022-12-22T00:02:20.569Z,937.32
2022-12-22T00:02:51.467Z,937.32
2022-12-22T00:03:22.639Z,937.22
2022-12-22T00:03:53.692Z,937.22
2022-12-22T00:04:24.287Z,937.22
2022-12-22T00:04:55.383Z,937.22
2022-12-22T00:05:27.441Z,937.42
2022-12-22T00:05:57.628Z,937.42
2022-12-22T00:06:28.211Z,937.22
2022-12-22T00:06:59.621Z,937.22
2022-12-22T00:07:30.332Z,937.32
2022-12-22T00:08:01.416Z,937.32
2022-12-22T00:08:32.277Z,937.22
2022-12-22T00:09:05.656Z,937.22
2022-12-22T00:09:34.593Z,937.32
2022-12-22T00:10:05.442Z,937.32
2022-12-22T00:10:37.543Z,937.32
2022-12-22T00:11:07.732Z,937.32
2022-12-22T00:11:38.839Z,937.32
2022-12-22T00:12:09.391Z,937.11
2022-12-22T00:12:40.674Z,937.11
2022-12-22T00:13:11.585Z,937.32
2022-12-22T00:13:42.580Z,937.32
2022-12-22T00:14:13.972Z,937.22
2022-12-22T00:14:44.516Z,937.22
2022-12-22T00:15:15.638Z,937.32
2022-12-22T00:15:47.261Z,937.32
2022-12-22T00:16:17.304Z,937.32
2022-12-22T00:16:48.733Z,937.32
2022-12-22T00:17:19.462Z,937.32
2022-12-22T00:17:50.302Z,937.32
2022-12-22T00:18:21.422Z,937.42
2022-12-22T00:18:52.480Z,937.42
2022-12-22T00:19:23.452Z,937.32
2022-12-22T00:19:54.328Z,937.32
2022-12-22T00:20:25.559Z,937.11
2022-12-22T00:20:57.386Z,937.11
2022-12-22T00:21:27.502Z,937.32
2022-12-22T00:21:58.358Z,937.32
2022-12-22T00:22:29.508Z,937.01
2022-12-22T00:23:00.437Z,937.01
2022-12-22T00:23:31.525Z,937.01
2022-12-22T00:24:02.239Z,937.01
2022-12-22T00:24:33.600Z,937.11
2022-12-22T00:25:04.454Z,937.11
2022-12-22T00:25:35.534Z,937.11
2022-12-22T00:26:37.683Z,936.91
2022-12-22T00:27:08.462Z,937.11
2022-12-22T00:27:43.865Z,937.11
2022-12-22T00:28:10.679Z,937.32
2022-12-22T00:28:41.466Z,937.32
2022-12-22T00:29:12.484Z,936.91
2022-12-22T00:29:43.607Z,936.91
2022-12-22T00:30:14.729Z,936.91
2022-12-22T00:30:45.530Z,936.91
2022-12-22T00:31:17.363Z,937.22
2022-12-22T00:31:47.359Z,937.22
2022-12-22T00:32:18.702Z,937.11
2022-12-22T00:32:49.523Z,937.11
2022-12-22T00:33:20.415Z,937.11
2022-12-22T00:33:51.733Z,937.11
2022-12-22T00:34:22.489Z,937.11
2022-12-22T00:34:53.626Z,937.11
2022-12-22T00:35:24.338Z,937.11
2022-12-22T00:35:55.244Z,937.11
2022-12-22T00:36:27.503Z,936.91
2022-12-22T00:36:57.725Z,936.91
2022-12-22T00:37:28.485Z,937.22
2022-12-22T00:37:59.476Z,937.22
2022-12-22T00:38:30.626Z,937.22
2022-12-22T00:39:01.535Z,937.22
2022-12-22T00:39:32.445Z,936.91
2022-12-22T00:40:03.361Z,936.91
2022-12-22T00:40:34.574Z,937.11
2022-12-22T00:41:05.529Z,937.11
2022-12-22T00:41:37.569Z,936.91
2022-12-22T00:42:07.736Z,937.11
2022-12-22T00:42:38.517Z,937.11
2022-12-22T00:43:09.431Z,937.22
2022-12-22T00:43:40.665Z,937.22
2022-12-22T00:44:11.706Z,937.11
2022-12-22T00:44:42.407Z,937.11
2022-12-22T00:45:13.575Z,937.01
2022-12-22T00:45:44.448Z,937.01
2022-12-22T00:46:15.594Z,937.01
2022-12-22T00:46:47.399Z,937.01
2022-12-22T00:47:17.397Z,937.11
2022-12-22T00:47:48.693Z,937.11
2022-12-22T00:48:19.590Z,937.01
2022-12-22T00:48:50.512Z,937.01
2022-12-22T00:49:21.554Z,936.81
2022-12-22T00:49:52.851Z,936.81
2022-12-22T00:50:23.686Z,936.91
2022-12-22T00:50:54.588Z,936.91
2022-12-22T00:51:25.598Z,937.01
2022-12-22T00:51:57.776Z,937.01
2022-12-22T00:52:27.361Z,936.91
2022-12-22T00:52:58.583Z,936.91
2022-12-22T00:53:29.340Z,936.91
2022-12-22T00:54:00.705Z,936.91
2022-12-22T00:54:31.548Z,936.91
2022-12-22T00:55:02.562Z,936.91
2022-12-22T00:55:33.701Z,937.01
2022-12-22T00:56:04.659Z,937.01
2022-12-22T00:56:35.557Z,936.91
2022-12-22T00:57:37.407Z,936.91
2022-12-22T00:58:08.682Z,936.91
2022-12-22T00:58:39.520Z,936.91
2022-12-22T00:59:10.636Z,936.91
2022-12-22T00:59:41.752Z,936.91
2022-12-22T01:00:15.346Z,936.81
2022-12-22T01:00:43.416Z,936.81
2022-12-22T01:01:14.551Z,936.91
2022-12-22T01:01:45.749Z,936.91
2022-12-22T01:02:17.560Z,937.11
2022-12-22T01:02:47.696Z,937.11
2022-12-22T01:03:18.722Z,936.91
2022-12-22T01:03:49.626Z,936.91
2022-12-22T01:04:20.569Z,937.11
2022-12-22T01:04:51.441Z,937.11
2022-12-22T01:05:22.566Z,937.01
2022-12-22T01:05:53.544Z,937.01
2022-12-22T01:06:24.557Z,936.91
2022-12-22T01:06:55.414Z,936.91
2022-12-22T01:07:27.482Z,937.11
2022-12-22T01:07:57.531Z,937.11
2022-12-22T01:08:28.648Z,937.01
2022-12-22T01:08:59.501Z,937.01
2022-12-22T01:09:30.554Z,937.01
2022-12-22T01:10:01.736Z,937.01
2022-12-22T01:10:32.417Z,936.91
2022-12-22T01:11:03.809Z,936.91
2022-12-22T01:11:34.601Z,936.91
2022-12-22T01:12:05.528Z,936.91
2022-12-22T01:12:37.487Z,936.81
2022-12-22T01:13:07.724Z,936.91
2022-12-22T01:13:38.431Z,936.91
2022-12-22T01:14:09.405Z,937.01
2022-12-22T01:14:41.062Z,937.01
2022-12-22T01:15:14.290Z,937.01
2022-12-22T01:15:42.618Z,937.01
2022-12-22T01:16:13.533Z,937.32
2022-12-22T01:16:44.489Z,937.32
2022-12-22T01:17:15.596Z,936.91
2022-12-22T01:17:47.474Z,936.91
2022-12-22T01:18:17.432Z,937.01
2022-12-22T01:18:48.596Z,937.01
2022-12-22T01:19:19.571Z,937.11
2022-12-22T01:19:50.526Z,937.11
2022-12-22T01:20:21.499Z,937.11
2022-12-22T01:20:52.560Z,937.11
2022-12-22T01:21:23.462Z,937.11
2022-12-22T01:21:54.599Z,937.11
2022-12-22T01:22:25.572Z,937.01
2022-12-22T01:22:57.469Z,937.01
2022-12-22T01:23:27.498Z,936.81
2022-12-22T01:23:58.645Z,936.81
2022-12-22T01:24:29.568Z,937.01
2022-12-22T01:25:00.636Z,937.01
2022-12-22T01:25:31.553Z,937.01
2022-12-22T01:26:02.555Z,937.01
2022-12-22T01:26:33.598Z,937.01
2022-12-22T01:27:04.840Z,937.01
2022-12-22T01:27:35.683Z,937.01
2022-12-22T01:28:37.549Z,937.01
2022-12-22T01:29:08.487Z,937.01
2022-12-22T01:29:39.461Z,937.01
2022-12-22T01:30:13.593Z,936.91
2022-12-22T01:30:41.833Z,936.91
2022-12-22T01:31:12.816Z,937.11
2022-12-22T01:31:43.646Z,937.11
2022-12-22T01:32:14.689Z,936.91
2022-12-22T01:32:45.630Z,936.91
2022-12-22T01:33:17.570Z,936.91
2022-12-22T01:33:47.415Z,936.91
2022-12-22T01:34:18.492Z,936.91
2022-12-22T01:34:49.685Z,936.91
2022-12-22T01:35:20.667Z,936.91
2022-12-22T01:35:51.697Z,936.91
2022-12-22T01:36:22.551Z,936.91
2022-12-22T01:36:53.614Z,936.91
2022-12-22T01:37:24.693Z,936.91
2022-12-22T01:37:55.786Z,936.91
2022-12-22T01:38:27.519Z,936.81
2022-12-22T01:38:57.778Z,936.81
2022-12-22T01:39:28.640Z,936.71
2022-12-22T01:39:59.751Z,936.71
2022-12-22T01:41:05.807Z,936.91
2022-12-22T01:41:27.307Z,936.71
2022-12-22T01:41:58.469Z,936.71
2022-12-22T01:42:29.505Z,936.81
2022-12-22T01:43:00.599Z,936.81
2022-12-22T01:43:32.842Z,936.71
2022-12-22T01:44:12.788Z,936.81
2022-12-22T01:44:39.027Z,936.81
2022-12-22T01:45:15.232Z,936.64
2022-12-22T01:45:40.746Z,936.64
2022-12-22T01:46:12.009Z,936.71
2022-12-22T01:46:42.703Z,936.71
2022-12-22T01:47:13.654Z,936.81
2022-12-22T01:47:44.750Z,936.81
2022-12-22T01:48:15.775Z,936.91
2022-12-22T01:48:47.579Z,936.91
2022-12-22T01:49:17.592Z,936.81
2022-12-22T01:49:48.635Z,936.81
2022-12-22T01:50:19.735Z,936.64
2022-12-22T01:50:50.826Z,936.64
2022-12-22T01:51:21.505Z,936.64
2022-12-22T01:51:52.497Z,936.64
2022-12-22T01:52:23.670Z,936.64
2022-12-22T01:52:54.798Z,936.64
2022-12-22T01:53:25.631Z,936.91
2022-12-22T01:53:57.520Z,936.91
2022-12-22T01:54:27.817Z,936.64
2022-12-22T01:54:58.818Z,936.64
2022-12-22T01:55:29.791Z,936.81
2022-12-22T01:56:00.492Z,936.81
2022-12-22T01:56:31.734Z,936.91
2022-12-22T01:57:02.470Z,936.91
2022-12-22T01:57:33.628Z,936.81
2022-12-22T01:58:04.425Z,936.81
2022-12-22T01:58:35.597Z,936.91
2022-12-22T01:59:37.865Z,936.81
2022-12-22T02:00:11.664Z,936.91
2022-12-22T02:00:39.701Z,936.91
2022-12-22T02:01:10.507Z,936.71
2022-12-22T02:01:41.879Z,936.71
2022-12-22T02:02:13.116Z,937.01
2022-12-22T02:02:43.771Z,937.01
2022-12-22T02:03:14.675Z,936.91
2022-12-22T02:03:45.603Z,936.91
2022-12-22T02:04:17.771Z,936.91
2022-12-22T02:04:47.723Z,936.91
2022-12-22T02:05:18.433Z,936.71
2022-12-22T02:05:49.688Z,936.71
2022-12-22T02:06:20.517Z,936.81
2022-12-22T02:06:57.904Z,936.81
2022-12-22T02:07:22.590Z,936.71
2022-12-22T02:07:53.489Z,936.71
2022-12-22T02:08:24.613Z,936.91
2022-12-22T02:08:55.571Z,936.91
2022-12-22T02:09:27.724Z,936.81
2022-12-22T02:09:57.496Z,936.81
2022-12-22T02:10:28.370Z,936.81
2022-12-22T02:10:59.330Z,936.81
2022-12-22T02:11:30.607Z,936.81
2022-12-22T02:12:01.928Z,936.81
2022-12-22T02:12:32.741Z,936.81
2022-12-22T02:13:03.608Z,936.81
2022-12-22T02:13:34.676Z,936.91
2022-12-22T02:14:05.902Z,936.91
2022-12-22T02:14:37.733Z,936.91
2022-12-22T02:15:10.702Z,937.01
2022-12-22T02:15:38.719Z,937.01
2022-12-22T02:16:09.943Z,936.81
2022-12-22T02:16:40.752Z,936.81
2022-12-22T02:17:11.645Z,936.54
2022-12-22T02:17:42.669Z,936.54
2022-12-22T02:18:13.680Z,936.81
2022-12-22T02:18:44.843Z,936.81
2022-12-22T02:19:15.779Z,936.64
2022-12-22T02:19:47.709Z,936.64
2022-12-22T02:20:17.692Z,936.64
2022-12-22T02:20:48.820Z,936.64
2022-12-22T02:21:19.954Z,936.81
2022-12-22T02:21:50.787Z,936.81
2022-12-22T02:22:21.702Z,936.64
2022-12-22T02:22:53.184Z,936.64
2022-12-22T02:23:23.733Z,936.91
2022-12-22T02:23:54.640Z,936.91
2022-12-22T02:24:25.897Z,936.71
2022-12-22T02:24:57.616Z,936.71
2022-12-22T02:25:27.687Z,936.71
2022-12-22T02:25:58.681Z,936.71
2022-12-22T02:26:29.829Z,936.64
2022-12-22T02:27:00.636Z,936.64
2022-12-22T02:27:31.924Z,936.64
2022-12-22T02:28:02.587Z,936.64
2022-12-22T02:28:33.476Z,936.64
2022-12-22T02:29:04.621Z,936.64
2022-12-22T02:29:35.694Z,936.71
2022-12-22T02:30:40.483Z,936.54
2022-12-22T02:31:08.569Z,936.64
2022-12-22T02:31:40.258Z,936.64
2022-12-22T02:32:10.718Z,936.64
2022-12-22T02:32:41.636Z,936.64
2022-12-22T02:33:12.599Z,936.64
2022-12-22T02:33:43.652Z,936.64
2022-12-22T02:34:14.758Z,936.44
2022-12-22T02:34:45.707Z,936.44
2022-12-22T02:35:17.644Z,936.64
2022-12-22T02:35:47.687Z,936.64
2022-12-22T02:36:18.594Z,936.54
2022-12-22T02:36:49.795Z,936.54
2022-12-22T02:37:20.451Z,936.54
2022-12-22T02:37:51.417Z,936.54
2022-12-22T02:38:22.594Z,936.54
2022-12-22T02:38:53.607Z,936.54
2022-12-22T02:39:24.759Z,936.64
2022-12-22T02:39:55.547Z,936.64
2022-12-22T02:40:27.573Z,936.64
2022-12-22T02:40:57.679Z,936.64
2022-12-22T02:41:28.763Z,936.44
2022-12-22T02:41:59.962Z,936.44
2022-12-22T02:42:30.617Z,936.33
2022-12-22T02:43:01.516Z,936.33
2022-12-22T02:43:32.477Z,936.54
2022-12-22T02:44:03.626Z,936.54
2022-12-22T02:44:34.688Z,936.44
2022-12-22T02:45:08.487Z,936.44
2022-12-22T02:45:37.639Z,936.54
2022-12-22T02:46:07.900Z,936.33
2022-12-22T02:46:38.703Z,936.33
2022-12-22T02:47:09.483Z,936.44
2022-12-22T02:47:40.568Z,936.44
2022-12-22T02:48:11.674Z,936.54
2022-12-22T02:48:42.570Z,936.54
2022-12-22T02:49:13.421Z,936.54
2022-12-22T02:49:44.608Z,936.54
2022-12-22T02:50:15.701Z,936.23
2022-12-22T02:50:47.522Z,936.23
2022-12-22T02:51:17.644Z,936.44
2022-12-22T02:51:48.440Z,936.44
2022-12-22T02:52:19.746Z,936.23
2022-12-22T02:52:50.852Z,936.23
2022-12-22T02:53:21.635Z,936.33
2022-12-22T02:53:52.684Z,936.33
2022-12-22T02:54:23.661Z,936.33
2022-12-22T02:54:54.458Z,936.33
2022-12-22T02:55:25.740Z,936.23
2022-12-22T02:55:57.778Z,936.23
2022-12-22T02:56:27.702Z,936.44
2022-12-22T02:56:58.680Z,936.44
2022-12-22T02:57:29.658Z,936.44
2022-12-22T02:58:00.697Z,936.44
2022-12-22T02:58:31.607Z,936.23
2022-12-22T02:59:02.600Z,936.23
2022-12-22T02:59:33.495Z,936.03
2022-12-22T03:00:07.479Z,936.03
2022-12-22T03:00:35.714Z,936.23
2022-12-22T03:01:38.038Z,936.44
2022-12-22T03:02:08.850Z,936.33
2022-12-22T03:02:39.935Z,936.33
2022-12-22T03:03:10.863Z,936.54
2022-12-22T03:03:41.829Z,936.54
2022-12-22T03:04:12.709Z,936.44
2022-12-22T03:04:43.858Z,936.44
2022-12-22T03:05:14.572Z,936.23
2022-12-22T03:05:45.764Z,936.23
2022-12-22T03:06:17.573Z,936.23
2022-12-22T03:06:47.873Z,936.23
2022-12-22T03:07:18.644Z,936.13
2022-12-22T03:07:49.781Z,936.13
2022-12-22T03:08:20.749Z,936.13
2022-12-22T03:08:51.572Z,936.13
2022-12-22T03:09:22.919Z,936.03
2022-12-22T03:09:53.685Z,936.03
2022-12-22T03:10:24.786Z,936.13
2022-12-22T03:10:55.775Z,936.13
2022-12-22T03:11:27.813Z,936.13
2022-12-22T03:11:57.825Z,936.13
2022-12-22T03:12:28.860Z,936.03
2022-12-22T03:12:59.921Z,936.03
2022-12-22T03:13:30.741Z,936.13
2022-12-22T03:14:01.982Z,936.13
2022-12-22T03:14:32.851Z,936.13
2022-12-22T03:15:06.453Z,936.13
2022-12-22T03:15:34.803Z,936.13
2022-12-22T03:16:05.858Z,936.13
2022-12-22T03:16:37.793Z,936.13
2022-12-22T03:17:07.790Z,936.03
2022-12-22T03:17:38.683Z,936.03
2022-12-22T03:18:09.727Z,936.13
2022-12-22T03:18:40.528Z,936.13
2022-12-22T03:19:11.731Z,936.23
2022-12-22T03:19:42.785Z,936.23
2022-12-22T03:20:13.891Z,936.03
2022-12-22T03:20:44.766Z,936.03
2022-12-22T03:21:15.681Z,936.13
2022-12-22T03:21:47.770Z,936.13
2022-12-22T03:22:17.807Z,936.03
2022-12-22T03:22:48.712Z,936.03
2022-12-22T03:23:19.797Z,936.03
2022-12-22T03:23:50.664Z,936.03
2022-12-22T03:24:21.639Z,935.83
2022-12-22T03:24:52.815Z,935.83
2022-12-22T03:25:23.725Z,936.13
2022-12-22T03:25:54.628Z,936.13
2022-12-22T03:26:25.626Z,935.83
2022-12-22T03:26:57.677Z,935.83
2022-12-22T03:27:27.626Z,935.83
2022-12-22T03:27:58.502Z,935.83
2022-12-22T03:28:29.492Z,935.93
2022-12-22T03:29:00.693Z,935.93
2022-12-22T03:29:31.649Z,936.03
2022-12-22T03:30:05.520Z,936.03
2022-12-22T03:30:33.678Z,935.83
2022-12-22T03:31:04.611Z,935.83
2022-12-22T03:31:35.848Z,936.03
2022-12-22T03:32:37.928Z,936.03
2022-12-22T03:33:08.721Z,935.93
2022-12-22T03:33:39.797Z,935.93
2022-12-22T03:34:10.752Z,936.03
2022-12-22T03:34:41.817Z,936.03
2022-12-22T03:35:13.136Z,935.83
2022-12-22T03:35:43.743Z,935.83
2022-12-22T03:36:14.817Z,936.03
2022-12-22T03:36:45.734Z,936.03
2022-12-22T03:37:17.876Z,936.03
2022-12-22T03:37:47.737Z,936.03
2022-12-22T03:38:18.875Z,935.93
2022-12-22T03:38:49.488Z,935.93
2022-12-22T03:39:20.664Z,935.93
2022-12-22T03:39:51.690Z,935.93
2022-12-22T03:40:22.986Z,936.03
2022-12-22T03:40:53.762Z,936.03
2022-12-22T03:41:24.668Z,935.93
2022-12-22T03:41:55.643Z,935.93
2022-12-22T03:42:27.719Z,935.83
2022-12-22T03:42:57.862Z,935.83
2022-12-22T03:43:28.534Z,935.93
2022-12-22T03:43:59.671Z,935.93
2022-12-22T03:44:31.010Z,935.93
2022-12-22T03:45:04.951Z,935.93
2022-12-22T03:45:32.465Z,935.93
2022-12-22T03:46:03.767Z,935.93
2022-12-22T03:46:34.697Z,936.03
2022-12-22T03:47:05.902Z,936.03
2022-12-22T03:47:37.815Z,935.93
2022-12-22T03:48:07.880Z,935.93
2022-12-22T03:48:38.715Z,935.93
2022-12-22T03:49:09.887Z,936.03
2022-12-22T03:49:40.697Z,936.03
2022-12-22T03:50:11.743Z,936.03
2022-12-22T03:50:42.530Z,936.03
2022-12-22T03:51:13.580Z,936.03
2022-12-22T03:51:44.862Z,936.03
2022-12-22T03:52:15.619Z,935.93
2022-12-22T03:52:47.575Z,935.93
2022-12-22T03:53:17.738Z,935.73
2022-12-22T03:53:48.770Z,935.73
2022-12-22T03:54:19.657Z,935.93
2022-12-22T03:54:50.539Z,935.93
2022-12-22T03:55:21.757Z,935.93
2022-12-22T03:55:52.759Z,935.93
2022-12-22T03:56:23.508Z,935.73
2022-12-22T03:56:54.711Z,935.73
2022-12-22T03:57:25.685Z,936.03
2022-12-22T03:57:57.507Z,936.03
2022-12-22T03:58:27.745Z,935.83
2022-12-22T03:58:58.728Z,935.83
2022-12-22T03:59:29.757Z,935.83
2022-12-22T04:00:03.507Z,935.83
2022-12-22T04:00:31.832Z,935.83
2022-12-22T04:01:02.996Z,935.83
2022-12-22T04:01:33.884Z,935.73
2022-12-22T04:02:04.929Z,935.73
2022-12-22T04:02:35.778Z,935.73
2022-12-22T04:03:37.971Z,935.62
2022-12-22T04:04:08.906Z,935.83
2022-12-22T04:04:39.780Z,935.83
2022-12-22T04:05:10.832Z,935.73
2022-12-22T04:05:41.890Z,935.73
2022-12-22T04:06:12.491Z,935.83
2022-12-22T04:06:43.774Z,935.83
2022-12-22T04:07:15.584Z,935.83
2022-12-22T04:07:45.895Z,935.83
2022-12-22T04:08:17.535Z,935.83
2022-12-22T04:08:47.858Z,935.83
2022-12-22T04:09:18.947Z,935.93
2022-12-22T04:09:49.768Z,935.93
2022-12-22T04:10:20.687Z,935.52
2022-12-22T04:10:51.677Z,935.52
2022-12-22T04:11:23.062Z,935.62
2022-12-22T04:11:53.685Z,935.62
2022-12-22T04:12:24.629Z,935.93
2022-12-22T04:12:55.701Z,935.93
2022-12-22T04:13:27.470Z,935.62
2022-12-22T04:13:57.587Z,935.62
2022-12-22T04:14:33.821Z,935.73
2022-12-22T04:14:59.666Z,935.73
2022-12-22T04:15:33.489Z,935.93
2022-12-22T04:16:01.640Z,935.93
2022-12-22T04:16:32.895Z,935.83
2022-12-22T04:17:03.749Z,935.83
2022-12-22T04:17:34.665Z,935.73
2022-12-22T04:18:05.850Z,935.73
2022-12-22T04:18:37.794Z,935.93
2022-12-22T04:19:08.062Z,935.52
2022-12-22T04:19:38.705Z,935.52
2022-12-22T04:20:09.795Z,935.73
2022-12-22T04:20:40.711Z,935.73
2022-12-22T04:21:11.883Z,935.83
2022-12-22T04:21:42.551Z,935.83
2022-12-22T04:22:13.674Z,935.62
2022-12-22T04:22:44.960Z,935.62
2022-12-22T04:23:15.819Z,935.62
2022-12-22T04:23:47.660Z,935.62
2022-12-22T04:24:17.926Z,935.73
2022-12-22T04:24:48.988Z,935.73
2022-12-22T04:25:19.981Z,935.73
2022-12-22T04:25:50.701Z,935.73
2022-12-22T04:26:21.883Z,935.73
2022-12-22T04:26:52.849Z,935.73
2022-12-22T04:27:24.141Z,935.62
2022-12-22T04:27:54.709Z,935.62
2022-12-22T04:28:25.898Z,935.62
2022-12-22T04:28:57.562Z,935.62
2022-12-22T04:29:27.714Z,935.62
2022-12-22T04:29:58.780Z,935.62
2022-12-22T04:30:32.806Z,935.73
2022-12-22T04:31:00.820Z,935.73
2022-12-22T04:31:32.206Z,935.62
2022-12-22T04:32:02.993Z,935.62
2022-12-22T04:32:33.914Z,935.62
2022-12-22T04:33:04.832Z,935.62
2022-12-22T04:33:35.884Z,935.62
2022-12-22T04:34:37.772Z,935.73
2022-12-22T04:35:08.869Z,935.62
2022-12-22T04:35:39.990Z,935.62
2022-12-22T04:36:10.834Z,935.73
2022-12-22T04:36:42.054Z,935.73
2022-12-22T04:37:17.202Z,935.73
2022-12-22T04:37:43.945Z,935.73
2022-12-22T04:38:15.048Z,935.62
2022-12-22T04:38:45.910Z,935.62
2022-12-22T04:39:17.962Z,935.73
2022-12-22T04:39:47.909Z,935.73
2022-12-22T04:40:18.892Z,935.83
2022-12-22T04:40:49.937Z,935.83
2022-12-22T04:41:20.607Z,935.73
2022-12-22T04:41:51.773Z,935.73
2022-12-22T04:42:23.491Z,935.73
2022-12-22T04:42:53.927Z,935.73
2022-12-22T04:43:24.716Z,935.83
2022-12-22T04:43:55.676Z,935.83
2022-12-22T04:44:27.633Z,935.73
2022-12-22T04:44:57.714Z,935.73
2022-12-22T04:45:32.243Z,935.83
2022-12-22T04:45:59.726Z,935.83
2022-12-22T04:46:30.897Z,935.73
2022-12-22T04:47:01.763Z,935.73
2022-12-22T04:47:33.025Z,935.52
2022-12-22T04:48:03.897Z,935.52
2022-12-22T04:48:34.682Z,935.83
2022-12-22T04:49:05.780Z,935.83
2022-12-22T04:49:37.943Z,935.93
2022-12-22T04:50:07.895Z,935.83
2022-12-22T04:50:38.632Z,935.83
2022-12-22T04:51:09.744Z,935.83
2022-12-22T04:51:40.893Z,935.83
2022-12-22T04:52:11.799Z,935.73
2022-12-22T04:52:42.598Z,935.73
2022-12-22T04:53:13.764Z,935.93
2022-12-22T04:53:44.783Z,935.93
2022-12-22T04:54:15.788Z,935.83
2022-12-22T04:54:47.845Z,935.83
2022-12-22T04:55:17.652Z,935.83
2022-12-22T04:55:48.668Z,935.83
2022-12-22T04:56:19.689Z,935.73
2022-12-22T04:56:50.822Z,935.73
2022-12-22T04:57:21.760Z,935.83
2022-12-22T04:57:52.926Z,935.83
2022-12-22T05:01:01.671Z,935.83
2022-12-22T05:01:29.892Z,935.93
2022-12-22T05:02:00.871Z,935.93
2022-12-22T05:02:31.855Z,936.03
2022-12-22T05:03:02.922Z,936.03
2022-12-22T05:03:33.748Z,935.83
2022-12-22T05:04:04.782Z,935.83
2022-12-22T05:04:35.851Z,935.93
2022-12-22T05:05:38.021Z,935.93
2022-12-22T05:06:08.918Z,935.93
2022-12-22T05:06:39.905Z,935.93
2022-12-22T05:07:10.835Z,935.83
2022-12-22T05:07:41.944Z,935.83
2022-12-22T05:08:12.667Z,935.73
2022-12-22T05:08:43.841Z,935.73
2022-12-22T05:09:14.872Z,935.73
2022-12-22T05:09:45.789Z,935.73
2022-12-22T05:10:17.923Z,935.73
2022-12-22T05:10:47.816Z,935.73
2022-12-22T05:11:19.290Z,935.73
2022-12-22T05:11:49.783Z,935.73
2022-12-22T05:12:20.672Z,935.62
2022-12-22T05:12:51.923Z,935.62
2022-12-22T05:13:22.658Z,935.73
2022-12-22T05:13:53.686Z,935.73
2022-12-22T05:14:24.825Z,935.73
2022-12-22T05:14:55.770Z,935.73
2022-12-22T05:15:30.468Z,935.93
2022-12-22T05:15:57.742Z,935.93
2022-12-22T05:16:29.008Z,935.73
2022-12-22T05:16:59.808Z,935.73
2022-12-22T05:17:30.792Z,935.83
2022-12-22T05:18:02.205Z,935.83
2022-12-22T05:18:32.876Z,935.83
2022-12-22T05:19:03.963Z,935.83
2022-12-22T05:19:34.727Z,935.73
2022-12-22T05:20:05.934Z,935.73
2022-12-22T05:20:38.091Z,935.73
2022-12-22T05:21:08.047Z,935.73
2022-12-22T05:21:38.895Z,935.73
2022-12-22T05:22:09.800Z,935.73
2022-12-22T05:22:41.227Z,935.73
2022-12-22T05:23:11.961Z,935.62
2022-12-22T05:23:42.706Z,935.62
2022-12-22T05:24:13.943Z,935.73
2022-12-22T05:24:44.850Z,935.73
2022-12-22T05:25:20.719Z,935.52
2022-12-22T05:25:50.385Z,935.52
2022-12-22T05:26:19.754Z,935.93
2022-12-22T05:26:49.914Z,935.93
2022-12-22T05:27:20.269Z,935.73
2022-12-22T05:27:50.967Z,935.73
2022-12-22T05:28:22.418Z,935.52
2022-12-22T05:28:53.150Z,935.52
2022-12-22T05:29:23.952Z,935.52
2022-12-22T05:29:54.722Z,935.52
2022-12-22T05:30:28.928Z,935.62
2022-12-22T05:30:57.923Z,935.62
2022-12-22T05:31:28.018Z,935.73
2022-12-22T05:31:59.077Z,935.73
2022-12-22T05:32:30.454Z,935.52
2022-12-22T05:33:01.157Z,935.52
2022-12-22T05:33:32.212Z,935.52
2022-12-22T05:34:03.195Z,935.52
2022-12-22T05:34:33.821Z,935.52
2022-12-22T05:35:04.955Z,935.52
2022-12-22T05:35:36.042Z,935.73
2022-12-22T05:36:37.876Z,935.83
2022-12-22T05:37:08.823Z,935.73
2022-12-22T05:37:40.174Z,935.73
2022-12-22T05:38:11.096Z,935.52
2022-12-22T05:38:42.493Z,935.52
2022-12-22T05:39:13.209Z,935.62
2022-12-22T05:39:44.223Z,935.62
2022-12-22T05:40:15.102Z,935.62
2022-12-22T05:40:45.872Z,935.62
2022-12-22T05:41:17.839Z,935.62
2022-12-22T05:41:47.813Z,935.62
2022-12-22T05:42:18.945Z,935.73
2022-12-22T05:42:52.712Z,935.73
2022-12-22T05:43:21.364Z,935.73
2022-12-22T05:43:52.038Z,935.73
2022-12-22T05:44:24.007Z,935.52
2022-12-22T05:44:54.354Z,935.52
2022-12-22T05:45:28.190Z,935.62
2022-12-22T05:45:56.153Z,935.62
2022-12-22T05:46:28.104Z,935.42
2022-12-22T05:46:58.273Z,935.42
2022-12-22T05:47:28.901Z,935.52
2022-12-22T05:48:00.446Z,935.52
2022-12-22T05:48:37.413Z,935.52
2022-12-22T05:49:01.875Z,935.52
2022-12-22T05:49:33.276Z,935.42
2022-12-22T05:50:04.562Z,935.42
2022-12-22T05:50:35.101Z,935.62
2022-12-22T05:51:06.068Z,935.62
2022-12-22T05:51:37.675Z,935.73
2022-12-22T05:52:08.099Z,935.93
2022-12-22T05:52:39.154Z,935.93
2022-12-22T05:53:10.159Z,935.73
2022-12-22T05:53:41.023Z,935.73
2022-12-22T05:54:11.978Z,935.62
2022-12-22T05:54:43.088Z,935.62
2022-12-22T05:55:14.187Z,935.83
2022-12-22T05:55:45.136Z,935.83
2022-12-22T05:56:16.135Z,935.93
2022-12-22T05:56:48.335Z,935.93
2022-12-22T05:57:18.435Z,935.93
2022-12-22T05:57:49.439Z,935.93
2022-12-22T05:58:20.278Z,936.03
2022-12-22T05:58:51.210Z,936.03
2022-12-22T05:59:22.340Z,936.03
2022-12-22T05:59:53.137Z,936.03
2022-12-22T06:00:27.241Z,935.83
2022-12-22T06:00:55.122Z,935.83
2022-12-22T06:01:26.805Z,935.93
2022-12-22T06:01:58.452Z,935.93
2022-12-22T06:02:28.127Z,935.62
2022-12-22T06:02:59.351Z,935.62
2022-12-22T06:03:30.390Z,935.83
2022-12-22T06:04:01.237Z,935.83
2022-12-22T06:04:32.348Z,935.83
2022-12-22T06:05:02.797Z,935.83
2022-12-22T06:05:34.266Z,936.03
2022-12-22T06:06:05.190Z,936.03
2022-12-22T06:06:36.431Z,935.73
2022-12-22T06:07:37.937Z,935.83
2022-12-22T06:08:08.950Z,936.03
2022-12-22T06:08:40.181Z,936.03
2022-12-22T06:09:11.083Z,935.83
2022-12-22T06:09:41.737Z,935.83
2022-12-22T06:10:13.190Z,935.73
2022-12-22T06:10:43.753Z,935.73
2022-12-22T06:11:14.652Z,935.73
2022-12-22T06:11:45.897Z,935.73
2022-12-22T06:12:17.886Z,935.73
2022-12-22T06:12:48.328Z,935.73
2022-12-22T06:13:18.855Z,935.83
2022-12-22T06:13:50.213Z,935.83
2022-12-22T06:14:23.628Z,935.62
2022-12-22T06:14:52.290Z,935.62
2022-12-22T06:15:26.309Z,935.73
2022-12-22T06:15:54.185Z,935.73
2022-12-22T06:16:25.073Z,935.62
2022-12-22T06:16:56.028Z,935.62
2022-12-22T06:17:28.100Z,935.52
2022-12-22T06:17:58.037Z,935.52
2022-12-22T06:18:29.384Z,935.62
2022-12-22T06:19:01.737Z,935.62
2022-12-22T06:19:30.943Z,936.03
2022-12-22T06:20:01.997Z,936.03
2022-12-22T06:20:32.911Z,935.83
2022-12-22T06:21:04.274Z,935.83
2022-12-22T06:21:35.228Z,935.62
2022-12-22T06:22:06.137Z,935.62
2022-12-22T06:22:38.099Z,935.73
2022-12-22T06:23:08.126Z,935.62
2022-12-22T06:23:39.153Z,935.62
2022-12-22T06:24:09.911Z,935.62
2022-12-22T06:24:41.285Z,935.62
2022-12-22T06:25:17.679Z,935.62
2022-12-22T06:25:44.064Z,935.62
2022-12-22T06:26:14.602Z,935.73
2022-12-22T06:26:45.976Z,935.73
2022-12-22T06:27:16.445Z,935.62
2022-12-22T06:27:48.005Z,935.62
2022-12-22T06:28:18.226Z,935.73
2022-12-22T06:28:48.921Z,935.73
2022-12-22T06:29:20.073Z,935.73
2022-12-22T06:29:50.697Z,935.73
2022-12-22T06:30:32.632Z,935.52
2022-12-22T06:30:52.990Z,935.52
2022-12-22T06:31:23.799Z,935.73
2022-12-22T06:31:54.961Z,935.73
2022-12-22T06:32:26.003Z,935.83
2022-12-22T06:32:57.874Z,935.83
2022-12-22T06:33:27.968Z,935.83
2022-12-22T06:33:58.925Z,935.83
2022-12-22T06:34:29.920Z,935.83
2022-12-22T06:35:02.641Z,935.83
2022-12-22T06:35:32.096Z,935.83
2022-12-22T06:36:03.126Z,935.83